Time;durP1;ratioP1;P1;durP2;ratioP2;P2;SDS_P1;SDS_P2;PMS_P1;PMS_P2;Temp;Humidity;BMP_temperature;BMP_pressure;BME280_temperature;BME280_humidity;BME280_pressure;Samples;Min_cycle;Max_cycle;Signal;HPM_P1;HPM_P2
2023/04/21 00:01:19;;;;;;;11.83;4.43;;;;;;;7.30;100.00;99758.52;123920;1102;104440;-82
2023/04/21 00:03:54;;;;;;;21.07;9.47;;;;;;;7.29;100.00;99759.34;124159;1101;104300;-81
2023/04/21 00:06:25;;;;;;;25.03;13.07;;;;;;;7.31;100.00;99760.31;123884;1102;104476;-81
2023/04/21 00:08:56;;;;;;;25.33;13.93;;;;;;;7.33;100.00;99758.63;123886;1102;104370;-82
2023/04/21 00:11:28;;;;;;;28.50;14.47;;;;;;;7.34;100.00;99756.08;123878;1102;104258;-82
2023/04/21 00:13:59;;;;;;;27.47;13.03;;;;;;;7.35;100.00;99756.95;123951;1102;104203;-83
2023/04/21 00:16:30;;;;;;;23.67;10.23;;;;;;;7.33;100.00;99754.29;123960;1102;104213;-82
2023/04/21 00:19:05;;;;;;;18.67;7.53;;;;;;;7.33;100.00;99751.68;124372;1102;104200;-83
2023/04/21 00:21:37;;;;;;;18.50;7.93;;;;;;;7.31;100.00;99744.65;123846;1102;104332;-82
2023/04/21 00:24:10;;;;;;;17.27;6.57;;;;;;;7.31;100.00;99758.58;124114;1102;104322;-83
2023/04/21 00:26:44;;;;;;;22.55;5.92;;;;;;;7.32;100.00;99746.41;124042;1102;104322;-82
2023/04/21 00:29:15;;;;;;;15.40;4.60;;;;;;;7.30;100.00;99742.86;124301;1102;104316;-83
2023/04/21 00:31:46;;;;;;;12.63;4.23;;;;;;;7.30;100.00;99755.91;123888;1101;104367;-82
2023/04/21 00:34:18;;;;;;;13.10;4.00;;;;;;;7.30;100.00;99761.12;123961;1102;104352;-82
2023/04/21 00:36:49;;;;;;;7.80;3.00;;;;;;;7.29;100.00;99756.73;123987;1102;104331;-81
2023/04/21 00:39:21;;;;;;;11.07;3.60;;;;;;;7.27;100.00;99745.36;124009;1102;104252;-85
2023/04/21 00:41:52;;;;;;;8.60;2.97;;;;;;;7.27;100.00;99747.97;124475;1102;104290;-82
2023/04/21 00:44:24;;;;;;;;;;;;;;;7.25;100.00;99747.91;124181;1102;101964;-83
2023/04/21 00:46:56;;;;;;;11.23;3.30;;;;;;;7.25;100.00;99742.69;123918;1102;104395;-85
2023/04/21 00:49:28;;;;;;;11.70;3.83;;;;;;;7.26;100.00;99740.95;124308;1102;104328;-85
2023/04/21 00:52:00;;;;;;;12.50;3.53;;;;;;;7.25;100.00;99744.42;124353;1102;104254;-85
2023/04/21 00:54:31;;;;;;;10.47;3.10;;;;;;;7.24;100.00;99747.84;124247;1102;104207;-84
2023/04/21 00:57:06;;;;;;;8.23;3.33;;;;;;;7.23;100.00;99740.84;124366;1102;104181;-85
2023/04/21 00:59:38;;;;;;;8.73;3.12;;;;;;;7.22;100.00;99744.30;124245;1102;104195;-85
2023/04/21 01:02:10;;;;;;;13.53;3.90;;;;;;;7.20;100.00;99736.42;124808;1102;104237;-85
2023/04/21 01:04:41;;;;;;;9.53;3.40;;;;;;;7.20;100.00;99739.03;124354;1102;104256;-85
2023/04/21 01:07:13;;;;;;;7.30;3.70;;;;;;;7.19;100.00;99745.07;124678;1101;104687;-84
2023/04/21 01:09:44;;;;;;;8.97;3.83;;;;;;;7.18;100.00;99744.19;124328;1102;104268;-82
2023/04/21 01:12:15;;;;;;;14.03;3.80;;;;;;;7.18;100.00;99735.45;123869;1102;104405;-85
2023/04/21 01:14:46;;;;;;;9.57;3.90;;;;;;;7.17;100.00;99733.70;124265;1102;104366;-84
2023/04/21 01:17:18;;;;;;;9.23;3.50;;;;;;;7.16;100.00;99732.79;124332;1102;104322;-84
2023/04/21 01:19:51;;;;;;;;;;;;;;;7.16;100.00;99732.79;124292;1102;104262;-84
2023/04/21 01:22:22;;;;;;;13.13;3.93;;;;;;;7.16;100.00;99727.57;124489;1102;104335;-84
2023/04/21 01:24:53;;;;;;;9.10;3.20;;;;;;;7.17;100.00;99737.19;124053;1102;104325;-84
2023/04/21 01:27:25;;;;;;;9.97;3.40;;;;;;;7.18;100.00;99727.63;124339;1102;104225;-82
2023/04/21 01:29:59;;;;;;;10.70;3.03;;;;;;;7.18;100.00;99732.84;124127;1102;109501;-84
2023/04/21 01:32:32;;;;;;;8.38;3.02;;;;;;;7.18;100.00;99736.36;124381;1102;104185;-82
2023/04/21 01:35:05;;;;;;;8.20;2.97;;;;;;;7.20;100.00;99736.42;124362;1102;104181;-84
2023/04/21 01:37:36;;;;;;;9.37;3.57;;;;;;;7.20;100.00;99732.08;124291;1102;104317;-84
2023/04/21 01:40:10;;;;;;;10.30;3.43;;;;;;;7.19;100.00;99729.41;124352;1102;104272;-82
2023/04/21 01:42:43;;;;;;;7.73;3.13;;;;;;;7.19;100.00;99730.30;124442;1101;104290;-83
2023/04/21 01:45:15;;;;;;;14.18;3.37;;;;;;;7.18;100.00;99736.36;124411;1102;104254;-84
2023/04/21 01:47:46;;;;;;;6.40;3.00;;;;;;;7.18;100.00;99722.41;124528;1102;104178;-83
2023/04/21 01:50:18;;;;;;;8.53;3.23;;;;;;;7.18;100.00;99733.75;124116;1102;104357;-84
2023/04/21 01:52:50;;;;;;;7.63;3.70;;;;;;;7.16;100.00;99730.18;124164;1102;104332;-82
2023/04/21 01:55:23;;;;;;;8.37;3.50;;;;;;;7.14;100.00;99721.42;124228;1102;104181;-83
2023/04/21 01:57:57;;;;;;;8.88;3.65;;;;;;;7.15;100.00;99725.81;124064;1102;104265;-83
2023/04/21 02:00:28;;;;;;;13.40;4.07;;;;;;;7.14;100.00;99726.64;124543;1102;118866;-83
2023/04/21 02:03:00;;;;;;;10.57;3.80;;;;;;;7.15;100.00;99717.08;124474;1102;104398;-83
2023/04/21 02:05:31;;;;;;;11.47;4.47;;;;;;;7.14;100.00;99723.15;124115;1102;104281;-83
2023/04/21 02:08:02;;;;;;;13.77;5.00;;;;;;;7.13;100.00;99719.63;123972;1102;104252;-82
2023/04/21 02:10:34;;;;;;;12.13;5.10;;;;;;;7.12;100.00;99725.70;124231;1102;104289;-81
2023/04/21 02:13:05;;;;;;;13.33;4.70;;;;;;;7.14;100.00;99725.76;124065;1102;104342;-82
2023/04/21 02:15:38;;;;;;;14.50;5.23;;;;;;;7.13;100.00;99726.58;124297;1102;104331;-83
2023/04/21 02:18:12;;;;;;;13.43;5.40;;;;;;;7.11;100.00;99718.69;124286;1102;104743;-83
2023/04/21 02:20:43;;;;;;;16.83;5.17;;;;;;;7.13;100.00;99718.75;124084;1102;104357;-84
2023/04/21 02:23:14;;;;;;;17.87;5.80;;;;;;;7.13;100.00;99721.36;124010;1102;104309;-83
2023/04/21 02:25:46;;;;;;;16.17;6.30;;;;;;;7.12;100.00;99725.70;124407;1102;104169;-84
2023/04/21 02:28:17;;;;;;;17.10;5.23;;;;;;;7.12;100.00;99712.66;124443;1102;104418;-84
2023/04/21 02:30:48;;;;;;;15.80;5.73;;;;;;;7.13;100.00;99718.75;124042;1102;104175;-82
2023/04/21 02:33:20;;;;;;;20.93;6.93;;;;;;;7.12;100.00;99723.09;124064;1102;104248;-83
2023/04/21 02:35:53;;;;;;;16.23;5.70;;;;;;;7.14;100.00;99724.03;123921;1102;104230;-82
2023/04/21 02:38:24;;;;;;;17.60;6.27;;;;;;;7.16;100.00;99718.86;123883;1102;104330;-82
2023/04/21 02:40:56;;;;;;;14.60;5.55;;;;;;;7.16;100.00;99721.48;123824;1102;104344;-82
2023/04/21 02:43:29;;;;;;;17.15;5.85;;;;;;;7.16;100.00;99724.95;123842;1102;104248;-81
2023/04/21 02:46:05;;;;;;;12.25;4.95;;;;;;;7.17;100.00;99721.53;123983;1102;104233;-81
2023/04/21 02:48:38;;;;;;;16.93;5.30;;;;;;;7.18;100.00;99723.31;123917;1102;104248;-82
2023/04/21 02:51:14;;;;;;;13.30;4.97;;;;;;;7.19;100.00;99714.64;123889;1102;104388;-82
2023/04/21 02:53:46;;;;;;;16.63;5.00;;;;;;;7.21;100.00;99717.30;123923;1102;104283;-83
2023/04/21 02:56:17;;;;;;;13.03;4.87;;;;;;;7.21;100.00;99722.52;124166;1102;104361;-80
2023/04/21 02:58:49;;;;;;;16.03;5.20;;;;;;;7.22;100.00;99719.09;124206;1102;104299;-82
2023/04/21 03:01:21;;;;;;;16.57;5.43;;;;;;;7.22;100.00;99719.09;123809;1102;104278;-82
2023/04/21 03:03:52;;;;;;;12.90;5.33;;;;;;;7.22;100.00;99720.82;123717;1102;104364;-82
2023/04/21 03:06:23;;;;;;;16.13;5.40;;;;;;;7.21;100.00;99719.91;123807;1102;104383;-81
2023/04/21 03:11:51;;;;;;;17.13;5.50;;;;;;;7.22;100.00;99726.05;125656;1096;104255;-83
2023/04/21 03:14:23;;;;;;;15.45;5.20;;;;;;;7.23;100.00;99722.58;123972;1106;104242;-83
2023/04/21 03:16:54;;;;;;;16.17;5.30;;;;;;;7.24;100.00;99722.63;124324;1106;104296;-82
2023/04/21 03:19:25;;;;;;;19.03;5.80;;;;;;;7.24;100.00;99730.46;123995;1104;104255;-83
2023/04/21 03:21:57;;;;;;;16.17;6.00;;;;;;;7.24;100.00;99727.85;124243;1105;104283;-84
2023/04/21 03:24:28;;;;;;;23.03;6.77;;;;;;;7.25;100.00;99731.38;123582;1105;104297;-83
2023/04/21 03:27:01;;;;;;;21.93;6.60;;;;;;;7.25;100.00;99728.77;123917;1105;104220;-83
2023/04/21 03:29:33;;;;;;;16.67;6.33;;;;;;;7.26;100.00;99733.13;123644;1105;104299;-83
2023/04/21 03:32:04;;;;;;;15.60;5.35;;;;;;;7.26;100.00;99727.91;123493;1105;104307;-83
2023/04/21 03:34:35;;;;;;;19.43;6.33;;;;;;;7.26;100.00;99726.21;123978;1105;104255;-82
2023/04/21 03:37:08;;;;;;;23.77;7.03;;;;;;;7.28;100.00;99731.48;123626;1105;104319;-84
2023/04/21 03:39:39;;;;;;;19.63;6.50;;;;;;;7.29;100.00;99735.85;123826;1105;104198;-84
2023/04/21 03:42:11;;;;;;;21.87;6.40;;;;;;;7.29;100.00;99738.46;123798;1106;104341;-83
2023/04/21 03:44:43;;;;;;;17.97;6.77;;;;;;;7.29;100.00;99735.85;124067;1106;104309;-83
2023/04/21 03:47:16;;;;;;;19.60;7.23;;;;;;;7.28;100.00;99732.36;124523;1105;104165;-83
2023/04/21 03:49:47;;;;;;;22.25;7.00;;;;;;;7.29;100.00;99731.55;123850;1105;104737;-85
2023/04/21 03:52:19;;;;;;;23.67;7.77;;;;;;;7.29;100.00;99736.77;123988;1105;104214;-81
2023/04/21 03:54:50;;;;;;;21.07;6.97;;;;;;;7.29;100.00;99747.20;123597;1106;104344;-81
2023/04/21 03:57:21;;;;;;;18.67;6.67;;;;;;;7.29;100.00;99751.51;123678;1105;104763;-83
2023/04/21 03:59:52;;;;;;;21.43;6.40;;;;;;;7.29;100.00;99751.51;123510;1105;104255;-82
2023/04/21 04:02:24;;;;;;;19.27;6.30;;;;;;;7.30;100.00;99755.91;124188;1104;104194;-82
2023/04/21 04:04:55;;;;;;;20.17;6.00;;;;;;;7.29;100.00;99760.25;123845;1105;104696;-82
2023/04/21 04:07:27;;;;;;;16.55;5.70;;;;;;;7.30;100.00;99762.00;123711;1105;104227;-80
2023/04/21 04:09:58;;;;;;;17.50;6.00;;;;;;;7.30;100.00;99759.39;123958;1104;104386;-79
2023/04/21 04:12:29;;;;;;;20.17;5.87;;;;;;;7.29;100.00;99765.47;123852;1104;104328;-81
2023/04/21 04:15:01;;;;;;;16.43;5.30;;;;;;;7.30;100.00;99771.56;123929;1105;104265;-83
2023/04/21 04:17:33;;;;;;;14.30;5.97;;;;;;;7.30;100.00;99761.12;124526;1105;104281;-84
2023/04/21 04:20:07;;;;;;;21.87;6.80;;;;;;;7.31;100.00;99765.52;124271;1105;104262;-85
2023/04/21 04:22:38;;;;;;;15.13;5.87;;;;;;;7.31;100.00;99770.75;123892;1105;104396;-82
2023/04/21 04:25:11;;;;;;;21.90;7.03;;;;;;;7.30;100.00;99769.83;123886;1105;104245;-80
2023/04/21 04:27:44;;;;;;;17.33;6.03;;;;;;;7.30;100.00;99766.34;123710;1105;104242;-81
2023/04/21 04:30:18;;;;;;;21.95;7.10;;;;;;;7.30;100.00;99768.95;124161;1105;104194;-80
2023/04/21 04:32:49;;;;;;;17.47;6.70;;;;;;;7.33;100.00;99766.46;123864;1105;104222;-80
2023/04/21 04:35:21;;;;;;;21.27;6.93;;;;;;;7.34;100.00;99773.47;123763;1105;104302;-81
2023/04/21 04:37:53;;;;;;;20.77;6.47;;;;;;;7.34;100.00;99778.69;123733;1104;104277;-83
2023/04/21 04:40:25;;;;;;;17.37;6.43;;;;;;;7.35;100.00;99770.91;123602;1105;104255;-84
2023/04/21 04:42:56;;;;;;;20.90;6.45;;;;;;;7.38;100.00;99770.12;123775;1105;104214;-85
2023/04/21 04:45:31;;;;;;;19.40;6.40;;;;;;;7.40;100.00;99773.66;124005;1105;104453;-83
2023/04/21 04:48:03;;;;;;;19.53;6.27;;;;;;;7.44;100.00;99772.95;123835;1105;104319;-81
2023/04/21 04:50:34;;;;;;;19.13;5.93;;;;;;;7.45;100.00;99774.74;124227;1106;104217;-82
2023/04/21 04:53:06;;;;;;;17.70;6.70;;;;;;;7.47;100.00;99770.45;124176;1105;104214;-81
2023/04/21 04:55:37;;;;;;;20.40;6.60;;;;;;;7.49;100.00;99775.73;124091;1105;104297;-81
2023/04/21 04:58:08;;;;;;;23.07;6.40;;;;;;;7.50;100.00;99780.13;124438;1105;104188;-82
2023/04/21 05:00:40;;;;;;;19.67;6.40;;;;;;;7.50;100.00;99778.41;124090;1105;104309;-81
2023/04/21 05:03:11;;;;;;;21.03;6.40;;;;;;;7.53;100.00;99777.63;124340;1105;104203;-83
2023/04/21 05:05:44;;;;;;;17.77;6.30;;;;;;;7.55;100.00;99789.02;123987;1105;104342;-84
2023/04/21 05:08:15;;;;;;;17.37;5.70;;;;;;;7.57;100.00;99782.11;124199;1105;102757;-83
2023/04/21 05:10:46;;;;;;;16.20;5.77;;;;;;;7.59;100.00;99779.56;124338;1105;104238;-84
2023/04/21 05:13:20;;;;;;;19.10;6.13;;;;;;;7.61;100.00;99783.13;124442;1106;102147;-82
2023/04/21 05:16:04;;;;;;;18.90;5.83;;;;;;;7.63;100.00;99781.45;124366;1105;104245;-83
2023/04/21 05:18:36;;;;;;;17.47;5.13;;;;;;;7.65;100.00;99787.61;125131;1105;104241;-85
2023/04/21 05:21:13;;;;;;;18.23;5.33;;;;;;;7.67;100.00;99780.74;124322;1105;104216;-85
2023/04/21 05:24:22;;;;;;;14.83;5.27;;;;;;;7.68;100.00;99787.72;125048;1105;103954;-85
2023/04/21 05:26:56;;;;;;;17.33;6.00;;;;;;;7.70;100.00;99781.73;124969;1105;110341;-83
2023/04/21 05:29:34;;;;;;;11.33;5.40;;;;;;;7.74;100.00;99782.72;125416;1105;102900;-84
2023/04/21 05:32:16;;;;;;;14.63;5.10;;;;;;;7.76;100.00;99786.30;125296;1105;102089;-86
2023/04/21 05:35:13;;;;;;;13.50;4.90;;;;;;;7.77;100.00;99781.95;125284;1105;104179;-86
2023/04/21 05:38:03;;;;;;;17.03;5.40;;;;;;;7.79;100.00;99770.73;125424;1105;118151;-86
2023/04/21 05:41:20;;;;;;;;;;;;;;;;;;;;;
2023/04/21 05:45:08;;;;;;;14.77;5.47;;;;;;;7.85;100.00;99768.34;125128;1105;102105;-86
2023/04/21 05:47:54;;;;;;;21.30;8.07;;;;;;;7.90;100.00;99774.60;124862;1109;104256;-80
2023/04/21 05:50:34;;;;;;;31.97;13.17;;;;;;;7.92;100.00;99787.72;125086;1109;102511;-84
2023/04/21 05:53:32;;;;;;;21.83;7.73;;;;;;;7.94;100.00;99780.81;125330;1105;104178;-81
2023/04/21 05:56:14;;;;;;;17.77;6.92;;;;;;;7.95;100.00;99779.98;125288;1105;102218;-82
2023/04/21 05:59:18;;;;;;;14.27;5.73;;;;;;;7.96;100.00;99783.48;125421;1105;102307;-80
2023/04/21 06:05:53;;;;;;;15.70;5.87;;;;;;;8.00;100.00;99774.92;125353;1105;104191;-82
2023/04/21 06:16:07;;;;;;;17.77;5.50;;;;;;;8.03;100.00;99780.25;125335;1102;104287;-83
2023/04/21 06:18:46;;;;;;;16.80;5.97;;;;;;;8.04;100.00;99782.91;125415;1105;102758;-81
2023/04/21 06:21:35;;;;;;;20.07;6.77;;;;;;;8.05;100.00;99783.80;125367;1105;103819;-82
2023/04/21 06:24:51;;;;;;;22.90;6.80;;;;;;;8.04;100.00;99785.53;125437;1105;102883;-81
2023/04/21 06:27:44;;;;;;;;;;;;;;;8.04;100.00;99789.84;125296;1105;101907;-83
2023/04/21 06:30:23;;;;;;;;;;;;;;;8.04;100.00;99787.23;125336;1105;102249;-79
2023/04/21 06:33:14;;;;;;;21.33;6.50;;;;;;;8.05;100.00;99783.80;125355;1105;102015;-82
2023/04/21 06:35:56;;;;;;;18.20;6.50;;;;;;;8.06;100.00;99791.69;125357;1105;102572;-82
2023/04/21 06:38:35;;;;;;;18.47;6.07;;;;;;;8.10;100.00;99795.28;125372;1105;104316;-81
2023/04/21 06:41:26;;;;;;;21.37;7.10;;;;;;;8.13;100.00;99791.90;125302;1105;103226;-83
2023/04/21 06:44:06;;;;;;;19.93;5.00;;;;;;;8.14;100.00;99789.34;126001;1104;102454;-81
2023/04/21 06:46:57;;;;;;;21.87;6.93;;;;;;;8.21;100.00;99801.79;125935;1102;102122;-83
2023/04/21 06:49:34;;;;;;;18.70;6.57;;;;;;;8.27;100.00;99795.86;125332;1105;102058;-81
2023/04/21 06:52:06;;;;;;;25.13;7.23;;;;;;;8.33;100.00;99803.03;125333;1105;103002;-83
2023/04/21 06:54:44;;;;;;;21.60;5.80;;;;;;;8.36;100.00;99805.75;125477;1105;103394;-83
2023/04/21 06:57:19;;;;;;;21.37;5.37;;;;;;;8.42;100.00;99805.95;125331;1105;104166;-82
2023/04/21 06:59:52;;;;;;;20.43;6.33;;;;;;;8.43;100.00;99810.32;125521;1105;110145;-86
2023/04/21 07:02:31;;;;;;;19.77;6.00;;;;;;;8.45;100.00;99804.35;125308;1106;103133;-81
2023/04/21 07:05:07;;;;;;;14.27;4.63;;;;;;;8.49;100.00;99807.95;125456;1104;104136;-82
2023/04/21 07:07:42;;;;;;;13.43;4.37;;;;;;;8.48;100.00;99815.73;125449;1105;102122;-82
2023/04/21 07:10:22;;;;;;;18.43;5.50;;;;;;;8.56;100.00;99804.70;125409;1105;102693;-85
2023/04/21 07:13:03;;;;;;;17.47;5.37;;;;;;;8.70;100.00;99806.89;125436;1102;102630;-80
2023/04/21 07:15:43;;;;;;;21.63;5.90;;;;;;;8.84;100.00;99809.95;125360;1105;102137;-86
2023/04/21 07:18:31;;;;;;;21.20;6.05;;;;;;;8.91;100.00;99804.95;125364;1102;102612;-85
2023/04/21 07:21:15;;;;;;;;;;;;;;;;;;;;;
2023/04/21 07:24:18;;;;;;;20.60;6.43;;;;;;;8.81;100.00;99815.95;125427;1105;102312;-81
2023/04/21 07:26:57;;;;;;;18.07;5.47;;;;;;;8.79;100.00;99820.27;125359;1105;104179;-82
2023/04/21 07:29:31;;;;;;;12.53;4.23;;;;;;;8.73;100.00;99820.06;125403;1105;103105;-80
2023/04/21 07:32:03;;;;;;;17.83;4.83;;;;;;;8.70;100.00;99822.59;125325;1105;103527;-81
2023/04/21 07:34:42;;;;;;;12.53;4.33;;;;;;;8.65;100.00;99827.67;124724;1106;104185;-82
2023/04/21 07:37:18;;;;;;;15.50;4.90;;;;;;;8.66;100.00;99820.70;125382;1103;104187;-79
2023/04/21 07:39:51;;;;;;;19.80;4.83;;;;;;;8.66;100.00;99820.70;124946;1105;102952;-77
2023/04/21 07:42:40;;;;;;;;;;;;;;;;;;;;;
2023/04/21 07:45:51;;;;;;;;;;;;;;;;;;;;;
2023/04/21 07:48:53;;;;;;;;;;;;;;;;;;;;;
2023/04/21 07:51:42;;;;;;;12.20;3.60;;;;;;;8.89;100.00;99818.82;124589;1105;103624;-78
2023/04/21 07:54:22;;;;;;;10.53;3.20;;;;;;;8.95;100.00;99824.25;124517;1105;104264;-83
2023/04/21 07:56:57;;;;;;;4.60;2.60;;;;;;;9.00;99.67;99826.14;125354;1105;104306;-78
2023/04/21 07:59:34;;;;;;;12.87;3.63;;;;;;;9.22;100.00;99823.31;124646;1105;104293;-81
2023/04/21 08:02:12;;;;;;;10.17;3.37;;;;;;;9.37;100.00;99823.78;125319;1105;102344;-80
2023/04/21 08:04:47;;;;;;;8.60;2.90;;;;;;;9.47;100.00;99819.69;125457;1102;102330;-83
2023/04/21 08:07:20;;;;;;;11.00;3.50;;;;;;;9.56;100.00;99822.58;124752;1105;104249;-82
2023/04/21 08:10:18;;;;;;;15.10;3.12;;;;;;;9.71;100.00;99820.40;125274;1102;102416;-83
2023/04/21 08:13:14;;;;;;;8.57;2.77;;;;;;;9.67;98.90;99829.00;125469;1105;103705;-84
2023/04/21 08:15:51;;;;;;;8.17;3.43;;;;;;;9.79;100.00;99811.88;124574;1109;102617;-82
2023/04/21 08:19:00;;;;;;;13.75;3.40;;;;;;;9.78;100.00;99797.86;125434;1105;102829;-83
2023/04/21 08:25:19;;;;;;;4.47;2.10;;;;;;;9.97;97.28;99817.63;125149;1106;104254;-83
2023/04/21 08:28:09;;;;;;;4.57;2.30;;;;;;;10.10;99.94;99820.55;125170;1105;104309;-83
2023/04/21 08:31:35;;;;;;;9.17;2.97;;;;;;;10.24;100.00;99806.09;124958;1109;104553;-81
2023/04/21 08:34:09;;;;;;;10.00;3.65;;;;;;;10.41;100.00;99811.80;124842;1109;103069;-82
2023/04/21 08:36:42;;;;;;;9.23;2.63;;;;;;;10.49;98.14;99820.74;125019;1108;102069;-82
2023/04/21 08:39:16;;;;;;;8.33;3.13;;;;;;;10.46;96.73;99814.55;125052;1109;102562;-79
2023/04/21 08:41:50;;;;;;;12.50;3.50;;;;;;;10.40;94.53;99816.14;124982;1105;102979;-82
2023/04/21 08:44:22;;;;;;;6.73;3.13;;;;;;;10.30;94.54;99813.20;125430;1103;103173;-77
2023/04/21 08:46:59;;;;;;;9.37;2.90;;;;;;;10.15;94.63;99811.09;124508;1106;102879;-82
2023/04/21 08:49:46;;;;;;;12.20;4.08;;;;;;;10.07;97.56;99806.52;125398;1104;102488;-83
2023/04/21 08:52:26;;;;;;;7.87;3.30;;;;;;;10.06;97.20;99815.22;125309;1105;102364;-83
2023/04/21 08:54:59;;;;;;;9.37;3.27;;;;;;;10.09;98.52;99806.56;124710;1106;104486;-83
2023/04/21 08:57:37;;;;;;;9.50;3.63;;;;;;;10.04;97.90;99806.44;125302;1105;102952;-80
2023/04/21 09:00:12;;;;;;;10.30;4.17;;;;;;;9.89;94.88;99814.80;124471;1105;104278;-77
2023/04/21 09:02:58;;;;;;;11.75;3.30;;;;;;;9.80;95.97;99813.62;124186;1105;103266;-79
2023/04/21 09:05:36;;;;;;;9.43;3.60;;;;;;;9.72;98.19;99808.17;124352;1105;104219;-80
2023/04/21 09:08:19;;;;;;;17.17;4.00;;;;;;;9.63;96.31;99815.77;124572;1105;103916;-80
2023/04/21 09:11:00;;;;;;;13.03;4.23;;;;;;;9.58;98.55;99813.02;124367;1105;104185;-79
2023/04/21 09:13:38;;;;;;;13.93;4.37;;;;;;;9.50;97.71;99815.42;124585;1102;104230;-77
2023/04/21 09:16:35;;;;;;;8.43;4.30;;;;;;;9.41;97.68;99811.66;124452;1103;104220;-79
2023/04/21 09:19:33;;;;;;;13.97;4.37;;;;;;;9.33;97.81;99808.80;124491;1102;104258;-82
2023/04/21 09:22:31;;;;;;;15.17;4.33;;;;;;;9.30;98.22;99811.34;124593;1106;102562;-81
2023/04/21 09:25:09;;;;;;;15.30;5.30;;;;;;;9.28;98.66;99824.38;124496;1104;102963;-75
2023/04/21 09:27:44;;;;;;;16.40;5.60;;;;;;;9.30;99.70;99816.56;124387;1105;104172;-78
2023/04/21 09:30:22;;;;;;;18.83;5.47;;;;;;;9.30;98.63;99807.01;124710;1105;102406;-80
2023/04/21 09:33:00;;;;;;;16.67;5.60;;;;;;;9.32;99.65;99812.29;124725;1106;102703;-80
2023/04/21 09:35:41;;;;;;;18.00;5.97;;;;;;;9.35;100.00;99808.02;124718;1102;103234;-78
2023/04/21 09:41:43;;;;;;;13.37;6.37;;;;;;;9.42;100.00;99802.97;124811;1102;103064;-81
2023/04/21 09:44:33;;;;;;;16.43;5.30;;;;;;;9.41;99.24;99811.66;124735;1105;110680;-80
2023/04/21 09:47:18;;;;;;;17.27;5.73;;;;;;;9.36;98.27;99806.28;124731;1105;102990;-79
2023/04/21 09:50:07;;;;;;;15.80;5.20;;;;;;;9.31;98.10;99808.77;124802;1103;104267;-78
2023/04/21 09:55:18;;;;;;;18.80;6.33;;;;;;;9.24;98.39;99812.06;124677;1105;102663;-77
2023/04/21 09:57:52;;;;;;;20.97;7.20;;;;;;;9.21;99.11;99811.97;124537;1102;104261;-77
2023/04/21 10:00:38;;;;;;;;;;;;;;;;;;;;;
2023/04/21 10:03:13;;;;;;;18.07;6.10;;;;;;;9.11;98.90;99813.39;125157;1105;104918;-81
2023/04/21 10:05:49;;;;;;;22.13;8.33;;;;;;;9.10;99.95;99811.64;124690;1106;102793;-80
2023/04/21 10:08:22;;;;;;;19.77;7.27;;;;;;;9.09;99.72;99814.20;125580;1102;102737;-79
2023/04/21 10:11:00;;;;;;;19.43;8.07;;;;;;;9.11;99.87;99810.77;124906;1104;103527;-84
2023/04/21 10:13:37;;;;;;;19.17;7.20;;;;;;;9.13;99.35;99810.83;125154;1105;102729;-78
2023/04/21 10:16:13;;;;;;;25.67;7.53;;;;;;;9.13;99.01;99816.97;124714;1105;102892;-80
2023/04/21 10:18:58;;;;;;;27.40;7.90;;;;;;;9.12;99.61;99814.30;125481;1102;102816;-81
2023/04/21 10:21:31;;;;;;;20.50;7.40;;;;;;;9.10;98.17;99813.34;125574;1105;102943;-81
2023/04/21 10:24:14;;;;;;;21.73;7.20;;;;;;;9.10;99.27;99816.88;124794;1105;102905;-79
2023/04/21 10:26:46;;;;;;;17.47;6.97;;;;;;;9.12;97.82;99824.77;124863;1105;102822;-81
2023/04/21 10:29:30;;;;;;;18.50;6.10;;;;;;;9.16;97.04;99821.39;124749;1102;102578;-80
2023/04/21 10:32:10;;;;;;;15.73;4.40;;;;;;;9.17;95.19;99813.58;124879;1102;104125;-79
2023/04/21 10:34:56;;;;;;;15.53;4.30;;;;;;;9.23;96.77;99825.98;124709;1105;104252;-78
2023/04/21 10:37:35;;;;;;;12.03;3.87;;;;;;;9.23;95.67;99832.95;125899;1103;102499;-79
2023/04/21 10:40:36;;;;;;;7.77;3.40;;;;;;;9.22;96.29;99828.55;125858;1105;101995;-79
2023/04/21 10:43:28;;;;;;;14.23;3.73;;;;;;;9.22;95.99;99845.14;125838;1102;102723;-79
2023/04/21 10:46:36;;;;;;;17.07;4.27;;;;;;;9.22;96.04;99823.31;125850;1101;108941;-79
2023/04/21 10:49:24;;;;;;;6.20;3.10;;;;;;;9.23;96.58;99830.34;125872;1105;102882;-79
2023/04/21 10:52:11;;;;;;;14.03;3.40;;;;;;;9.20;96.68;99831.13;125921;1102;102530;-79
2023/04/21 10:55:09;;;;;;;11.50;3.43;;;;;;;9.14;96.71;99831.81;125859;1104;103062;-81
2023/04/21 11:00:38;;;;;;;8.47;3.47;;;;;;;9.02;97.66;99835.78;125808;1102;102617;-81
2023/04/21 11:03:51;;;;;;;9.93;3.60;;;;;;;8.97;98.16;99833.02;125817;1102;101802;-83
2023/04/21 11:06:36;;;;;;;12.97;3.97;;;;;;;8.97;98.32;99848.72;125734;1101;109995;-83
2023/04/21 11:09:45;;;;;;;13.70;3.30;;;;;;;8.97;97.78;99849.60;125884;1102;102725;-86
2023/04/21 11:12:39;;;;;;;10.50;3.60;;;;;;;8.99;98.20;99841.80;125751;1105;104508;-81
2023/04/21 11:15:20;;;;;;;9.30;3.07;;;;;;;9.03;96.85;99842.80;125787;1104;102119;-81
2023/04/21 11:18:10;;;;;;;;;;;;;;;;;;;;;
2023/04/21 11:21:14;;;;;;;9.63;3.27;;;;;;;9.13;96.39;99837.00;125839;1105;102522;-82
2023/04/21 11:24:29;;;;;;;;;;;;;;;;;;;;;
2023/04/21 11:27:07;;;;;;;9.60;3.87;;;;;;;9.23;97.22;99841.69;125928;1102;118645;-85
2023/04/21 11:29:41;;;;;;;12.03;3.73;;;;;;;9.27;96.46;99833.09;125929;1102;102042;-82
2023/04/21 11:32:35;;;;;;;9.10;3.43;;;;;;;9.31;96.15;99834.06;126152;1102;102788;-83
2023/04/21 11:35:11;;;;;;;11.83;3.63;;;;;;;9.33;95.74;99834.98;125916;1102;102024;-84
2023/04/21 11:37:46;;;;;;;12.13;3.97;;;;;;;9.37;96.36;99838.61;126038;1102;102694;-82
2023/04/21 11:40:30;;;;;;;8.60;3.80;;;;;;;9.38;96.49;99835.13;125807;1105;103085;-80
2023/04/21 11:43:11;;;;;;;12.97;3.57;;;;;;;9.38;95.78;99841.27;125770;1105;102465;-80
2023/04/21 11:46:23;;;;;;;;;;;;;;;;;;;;;
2023/04/21 11:49:28;;;;;;;15.33;4.50;;;;;;;9.41;95.87;99841.37;125287;1105;104020;-84
2023/04/21 11:52:38;;;;;;;12.20;4.30;;;;;;;9.43;95.72;99842.29;125341;1102;102997;-80
2023/04/21 11:55:18;;;;;;;13.23;4.67;;;;;;;9.44;96.12;99836.22;124663;1102;102770;-82
2023/04/21 11:57:59;;;;;;;12.47;4.40;;;;;;;9.45;95.12;99837.09;125303;1105;107490;-81
2023/04/21 12:00:39;;;;;;;21.37;5.30;;;;;;;9.47;94.54;99836.31;124757;1105;104354;-82
2023/04/21 12:06:11;;;;;;;14.13;5.00;;;;;;;9.51;94.03;99838.16;125410;1102;102571;-78
2023/04/21 12:08:45;;;;;;;17.73;5.20;;;;;;;9.52;94.47;99834.70;124496;1102;103237;-77
2023/04/21 12:11:35;;;;;;;12.47;4.60;;;;;;;9.53;92.47;99833.84;124723;1102;104229;-80
2023/04/21 12:14:14;;;;;;;12.90;4.07;;;;;;;9.54;90.03;99863.56;124890;1102;104273;-80
2023/04/21 12:16:55;;;;;;;7.20;3.60;;;;;;;9.58;91.63;99843.58;124796;1103;104233;-80
2023/04/21 12:19:53;;;;;;;8.20;2.97;;;;;;;9.58;91.50;99854.92;124807;1102;104185;-79
2023/04/21 12:22:36;;;;;;;9.10;3.70;;;;;;;9.60;91.55;99855.88;124769;1105;101993;-78
2023/04/21 12:25:53;;;;;;;;;;;;;;;;;;;;;
2023/04/21 12:28:42;;;;;;;5.50;2.87;;;;;;;9.65;90.59;99851.66;124662;1103;104188;-80
2023/04/21 12:31:49;;;;;;;6.10;2.60;;;;;;;9.80;90.88;99860.80;124610;1102;103208;-78
2023/04/21 12:34:42;;;;;;;10.10;2.72;;;;;;;9.99;89.80;99863.10;124298;1102;102663;-76
2023/04/21 12:37:32;;;;;;;7.57;2.90;;;;;;;10.25;89.05;99849.80;124772;1102;104258;-76
2023/04/21 12:40:26;;;;;;;8.43;2.57;;;;;;;10.46;87.78;99838.15;124520;1102;104342;-79
2023/04/21 12:43:02;;;;;;;3.67;1.77;;;;;;;10.35;86.21;99843.99;125333;1103;104297;-78
2023/04/21 12:46:25;;;;;;;4.63;1.80;;;;;;;10.44;88.33;99835.48;124463;1102;102747;-78
2023/04/21 12:49:06;;;;;;;4.90;2.30;;;;;;;10.40;87.03;99854.60;124555;1102;102256;-79
2023/04/21 12:51:39;;;;;;;3.27;1.60;;;;;;;10.25;85.14;99855.04;124383;1105;103098;-81
2023/04/21 12:54:50;;;;;;;;;;;;;;;;;;;;;
2023/04/21 13:01:20;;;;;;;5.40;2.40;;;;;;;9.96;89.30;99863.02;125123;1106;102887;-84